Elwood, South Dakota
Current Conditions -  °F | °C
As of 3:55 PM on Thursday 20 Nov 2014 (Local Time) from KPHP Reporting Station
Clear Clear  
Wind Chill: 17°   Ceiling: Unl
Heat Index: 26°   Visibility: 10mi
Dew Point: 19°   Wind: 9mph
Humidity: 75%   Direction: 100°E
Pressure: 30"   Gusts: NA
Location:  44.6395°N, 101.796°W
Report Text: KPHP 202255Z AUTO 10008KT 10SM CLR M03/M07 A3000 RMK AO2 SLP186 T10331072
Loading
Personal Weather Stations






























Interactive Weather Map New forecast layout! Learn more

10-Day Weather Forecast

Advertisements
Track Severe Weather on mobile